Nuno Barbosa

Olheiro-Chefe - Tondela
21 Out 2027
Quinta-feira
Processo

Personalidade

Adaptabilidade (1) Ambição (17) Controvérsia (11) Lealdade (18) Pressão (6) Profissionalismo (19) Espírito Esportivo (3) Temperamento (20)

Perfil

Estilo de Treinamento Democrático
Licença Nacional B
Determinação 4
Gestão de Pessoas 12
Motivação 4
Disciplina 4
Satisfação no Trabalho
100%
Fadiga
0%
Função Olheiro-Chefe
Salário 23.1K p/s
Contrato 14.03.2029

Desempenho

Comportamento Bom
Eficácia do Treinamento
40%
Desenvolvimento do Jogador
55%
Prevenção de Lesões
30%
Implementação Tática
50%

Eventos Recentes

Participou de uma reunião de recrutamento agora
Recomendou um alvo de transferência agora
Recomendou um alvo de transferência agora
Recomendou um alvo de transferência 7d atrás
Recomendou um alvo de transferência 7d atrás
Recomendou um alvo de transferência 7d atrás
Recomendou um alvo de transferência 7d atrás
Observou uma partida 7d atrás

Monitorando agora

136
Jogador Clube Status Habilidade Confiança Observado Última observação Último voto
Lucas Camejo River Plate Ativo 95 / 92 40% 3 10.10.2027 -
Pedro Henrique Paysandu Ativo 103 / 97 40% 1 10.10.2027 -
Óscar Hinojosa Metropolitanos Ativo 93 / 105 40% 1 08.10.2027 -
Bahia Criciuma Ativo 107 / 101 40% 1 07.10.2027 -
Tyson Pearce St. Louis CITY SC Ativo 95 / 83 40% 1 07.10.2027 -
Harbor Miller LA Galaxy Ativo 108 / 103 40% 1 06.10.2027 -
Diogo Guzmán Montevideo City Torque Ativo 107 / 103 40% 2 09.09.2027 -
Onuorah Onyedika Kun Khalifat Ativo 78 / 76 40% 1 09.09.2027 -
Noah Streit CF Montreal Ativo 114 / 138 40% 1 07.09.2027 -
Joel Ezra Enyimba Ativo 104 / 97 40% 1 06.09.2027 -
Cristian Florez Cortulua Ativo 107 / 126 40% 1 06.09.2027 -
Vasco Santos Oliveirense Ativo 89 / 106 40% 1 29.05.2027 -
Leo Castledine Middlesbrough Ativo 135 / 145 40% 1 29.05.2027 -
Oscar Schwartau Norwich City Ativo 123 / 114 40% 4 28.05.2027 -
Othmane Maamma Watford Ativo 120 / 123 40% 3 28.05.2027 -
Shea Lacey Wolverhampton Ativo 118 / 130 40% 2 26.05.2027 -
Lander Astiazarán Real Sociedad Ativo 96 / 112 40% 2 26.05.2027 -
Tomás Peixoto Porto Ativo 92 / 93 40% 1 25.05.2027 -
Christos Mouzakitis Hull City Ativo 131 / 138 40% 2 24.05.2027 -
Jesús Rodríguez Como Ativo 142 / 141 40% 2 24.05.2027 Mais informações
Bernardes Benfica Ativo 110 / 100 40% 1 21.05.2027 -
Caleb Yirenkyi Coventry City Ativo 145 / 129 40% 2 17.05.2027 -
Jayden Addai Como Ativo 137 / 127 40% 2 17.05.2027 -
Ethan Williams Peterborough United Ativo 105 / 117 40% 2 16.05.2027 -
Paulo Iago Sporting CP Ativo 94 / 88 40% 1 16.05.2027 -
Josh King Chelsea Ativo 134 / 157 40% 1 14.05.2027 -
Paulo Cardoso Sporting CP Ativo 84 / 96 40% 1 14.05.2027 -
Rayan Bournemouth Ativo 134 / 141 40% 1 10.05.2027 Mais informações
Ben Gannon Doak Bournemouth Ativo 150 / 146 40% 1 09.05.2027 -
Joel McGregor Swindon Town Ativo 84 / 85 40% 1 08.05.2027 -
Víctor Guzmán Sporting CP Ativo 98 / 115 40% 2 03.05.2027 -
Tiago Freitas Benfica Ativo 103 / 125 40% 3 03.05.2027 -
Rodrigo Mora AS Roma Ativo 137 / 137 40% 4 01.05.2027 -
Gianluca Prestianni Benfica Ativo 126 / 129 40% 2 01.05.2027 -
Stevan Manuel Benfica Ativo 94 / 114 40% 2 27.04.2027 -
Lynden Edhart Cambuur Ativo 103 / 105 40% 1 19.04.2027 -
Alex Amorim Genoa Ativo 126 / 135 40% 1 18.04.2027 -
Araphat Mohammed Berekum Chelsea Ativo 101 / 118 40% 2 17.04.2027 -
Monty Batlhabane Polokwane City Ativo 112 / 89 40% 1 11.04.2027 -
Pau Víctor AVS Ativo 145 / 125 40% 3 09.02.2027 -
Brayan León Mamelodi Sundowns Ativo 119 / 125 40% 1 09.02.2027 -
Gonzalo Fulham Ativo 147 / 138 40% 2 07.02.2027 -
Gustavo Silva Vitoria Guimaraes Ativo 120 / 121 40% 1 05.02.2027 -
Toni Fruk KV Mechelen Ativo 142 / 137 40% 2 04.02.2027 -
Kwame Opoku Asante Kotoko Ativo 103 / 93 40% 1 04.02.2027 -
Alfonso Trezza Arouca Ativo 137 / 118 40% 1 02.02.2027 -
Armando Broja Burnley Ativo 129 / 139 40% 1 02.02.2027 -
Roberto Fernández Braga Ativo 137 / 132 67% 7 14.01.2027 Aprovar
Dion Beljo Standard Liege Negociando 131 / 132 66% 1 11.01.2027 Aprovar
Andreas Trimmel Red Bull Salzburg Ativo 131 / 131 60% 1 01.01.2027 Aprovar
Amar Memić Casa Pia Negociando 127 / 128 62% 1 01.01.2027 Aprovar
Carlos Vicente Birmingham Ativo 152 / 150 40% 2 30.12.2026 -
Juan Muñoz Leiria Ativo 119 / 123 40% 1 27.12.2026 -
Aune Heggebø West Bromwich Albion Ativo 132 / 133 40% 2 26.12.2026 -
Luis Vázquez Birmingham Ativo 126 / 121 40% 2 26.12.2026 -
Petar Musa Adana Demirspor Ativo 142 / 153 40% 2 24.12.2026 Mais informações
Fran Navarro Braga Ativo 135 / 141 40% 1 24.12.2026 Mais informações
Ryan Sessegnon Fulham Ativo 151 / 155 40% 2 23.12.2026 -
Figueiredo Alverca Ativo 119 / 123 40% 2 23.12.2026 -
Callum O'Hare Sheffield United Ativo 127 / 117 40% 1 23.12.2026 -
Juanlu Bournemouth Ativo 138 / 149 40% 1 23.12.2026 -
Petar Stanić Ludogorets Ativo 123 / 154 40% 1 22.12.2026 -
Lewis Morgan SuperSport United Ativo 135 / 133 40% 5 21.12.2026 -
Moussa Dembélé CR Belouizdad Ativo 143 / 120 40% 1 21.12.2026 -
Dom Ballard Leyton Orient Ativo 111 / 116 40% 1 20.12.2026 -
Mohammed Bouldini Académico de Viseu Ativo 130 / 127 40% 4 16.12.2026 -
Razvan Balasa Crvena Zvezda Ativo 148 / 163 40% 4 16.12.2026 -
Ismael Díaz Leon Ativo 143 / 138 40% 2 15.12.2026 -
Benjamin Kanurić SV Ried Ativo 104 / 116 40% 1 15.12.2026 -
Jason Knight Bristol City Ativo 120 / 126 40% 1 14.12.2026 -
Themba Ngcobo SuperSport United Ativo 105 / 116 40% 3 10.12.2026 -
Mourad Tijuana Ativo 120 / 113 40% 1 10.12.2026 -
Derensili Sanches Fernandes Huddersfield Town Ativo 121 / 124 40% 1 10.12.2026 -
Christian Krasnodar Ativo 125 / 155 40% 1 09.12.2026 -
Callum Hudson-Odoi Nottingham Forest Ativo 142 / 151 40% 1 09.12.2026 -
Tommy Conway Middlesbrough Ativo 127 / 117 40% 1 07.12.2026 Mais informações
Morgan Whittaker Middlesbrough Ativo 133 / 129 40% 1 07.12.2026 Mais informações
Hugo Cuypers Monterrey Ativo 112 / 138 40% 2 06.12.2026 -
Giacomo Raspadori Atalanta Ativo 154 / 139 40% 1 03.12.2026 Mais informações
Fotis Ioannidis Rio Ave Ativo 147 / 143 40% 4 01.12.2026 -
Jalen Blesa Rio Ave Ativo 110 / 132 40% 2 29.11.2026 -
Gabriel Jesus Barcelona Ativo 145 / 158 40% 3 28.11.2026 -
Noni Madueke Arsenal Ativo 151 / 142 40% 1 28.11.2026 -
Héctor Hernández Gil Vicente Ativo 127 / 123 40% 2 25.11.2026 -
Ross Stewart Southampton Ativo 137 / 134 40% 1 25.11.2026 -
Yousef Salech Cardiff City Ativo 120 / 127 40% 2 23.11.2026 -
Juninho Pumas UNAM Ativo 113 / 140 40% 2 22.11.2026 -
Wilson Isidor Sunderland Ativo 135 / 143 40% 1 22.11.2026 -
Guilherme Ankaragucu Ativo 115 / 119 40% 1 20.11.2026 -
Diego Valdés Vélez Ativo 127 / 123 40% 2 17.11.2026 -
Lorent Tolaj Plymouth Argyle Ativo 129 / 128 40% 1 17.11.2026 -
Chuchu Ramírez Nacional Ativo 136 / 124 40% 2 16.11.2026 -
Georginio Rutter Brighton Ativo 136 / 160 40% 1 15.11.2026 -
Federico Chiesa Liverpool Ativo 159 / 160 40% 1 12.11.2026 -
Kevin Fulham Ativo 136 / 154 40% 1 12.11.2026 -
Reda Khadra Qarabag Ativo 120 / 110 40% 1 11.11.2026 -
Noah Sadiki Sunderland Ativo 151 / 145 40% 1 07.11.2026 -
Jorrel Hato Chelsea Ativo 148 / 141 40% 1 07.11.2026 -
Bruno Ramos Sporting CP Ativo 100 / 123 40% 1 06.11.2026 -
Hany Mukhtar Spezia Ativo 137 / 137 40% 1 02.11.2026 -
Ramiro Ruiz Rodríguez Atlético Tucumán Ativo 123 / 131 40% 1 31.10.2026 -
Will Lankshear Middlesbrough Ativo 121 / 136 40% 1 27.10.2026 -
Tomás O'Connor Gimnasia y Esgrima Ativo 123 / 115 40% 1 27.10.2026 -
Félix Lemaréchal Club Brugge Ativo 139 / 132 40% 1 27.10.2026 -
Pablo Fernández Leiria Ativo 111 / 110 40% 1 25.10.2026 -
Freddy Gomez La Equidad Ativo 135 / 122 40% 1 23.10.2026 -
Nicolò Tresoldi Club Brugge Ativo 129 / 121 40% 2 22.10.2026 -
Léo Bonatini Brondby Ativo 123 / 127 40% 1 21.10.2026 -
Breel Embolo Atlanta United FC Ativo 146 / 158 40% 2 20.10.2026 -
Soma Anzai FC Tokyo Ativo 107 / 140 40% 1 15.10.2026 -
Agustín Módica Gimnasia y Esgrima Ativo 107 / 124 40% 1 12.10.2026 -
Tadeo Allende Inter Miami CF Ativo 113 / 109 40% 1 09.10.2026 -
Pedro Bondo Famalicao Ativo 115 / 114 40% 1 09.10.2026 -
José Pachuca Puebla Ativo 106 / 114 40% 1 09.10.2026 -
Márcio Mendes Pandurii Ativo 138 / 115 40% 1 06.10.2026 -
Bertrand Traoré Sunderland Ativo 146 / 124 40% 1 05.10.2026 -
Antony Alonso Deportivo Riestra Ativo 139 / 117 40% 1 05.10.2026 -
Alfredo Morelos Atletico Nacional Ativo 130 / 134 40% 2 01.10.2026 -
Sam Surridge Nashville SC Ativo 123 / 137 40% 1 28.09.2026 -
Kelvin Yeboah Minnesota United FC Ativo 125 / 125 40% 2 25.09.2026 -
Rodrigo Bogarín Barracas Central Ativo 114 / 129 40% 1 21.09.2026 -
Alonso Martínez New York City Ativo 138 / 126 40% 1 21.09.2026 -
Riley McGree Middlesbrough Ativo 130 / 136 40% 1 19.09.2026 -
Xavi Simons Tottenham Ativo 159 / 159 40% 1 19.09.2026 -
Timo Werner San Jose Earthquakes Ativo 118 / 142 40% 1 17.09.2026 -
Tiago Palacios Estudiantes Ativo 134 / 140 40% 1 15.09.2026 -
Víctor Gómez Braga Ativo 143 / 123 40% 1 14.09.2026 -
Facundo Mura Inter Miami CF Ativo 119 / 114 40% 1 14.09.2026 -
Lucas Carrizo Plaza Colonia Ativo 127 / 102 40% 1 12.09.2026 -
Maximiliano Rodríguez Huachipato Ativo 106 / 105 40% 2 10.09.2026 -
Alexander Díaz Deportivo Riestra Ativo 112 / 136 40% 1 10.09.2026 -
Ozziel Herrera Tigres Ativo 111 / 118 40% 2 09.09.2026 -
Bénie Traoré New York City Ativo 135 / 115 40% 1 02.09.2026 -
Leonardo Campana New England Revolution Ativo 126 / 111 40% 1 01.09.2026 -
Filipe Soares Nacional Ativo 96 / 111 55% 1 03.08.2026 -
Martín Ojeda Orlando City Ativo 147 / 122 40% 1 01.08.2026 -